createdAt,value
2023-03-27T00:02:15.142Z,83.43
2023-03-27T00:04:50.326Z,82.91
2023-03-27T00:07:32.393Z,83.23
2023-03-27T00:10:01.890Z,83.47
2023-03-27T00:12:30.001Z,83.54
2023-03-27T00:15:00.975Z,83.67
2023-03-27T00:17:32.663Z,83.33
2023-03-27T00:19:59.598Z,83.38
2023-03-27T00:22:26.638Z,83.55
2023-03-27T00:24:57.118Z,83.75
2023-03-27T00:27:26.030Z,83.15
2023-03-27T00:29:55.049Z,83.46
2023-03-27T00:32:21.911Z,83.64
2023-03-27T00:34:55.544Z,83.58
2023-03-27T00:37:24.802Z,84.14
2023-03-27T00:39:51.598Z,84.35
2023-03-27T00:45:18.455Z,84.41
2023-03-27T00:47:48.010Z,84.75
2023-03-27T00:50:24.682Z,84.70
2023-03-27T00:52:57.308Z,84.74
2023-03-27T00:55:35.083Z,84.76
2023-03-27T00:58:07.272Z,84.66
2023-03-27T01:00:35.070Z,84.71
2023-03-27T01:03:05.903Z,84.62
2023-03-27T01:05:33.815Z,84.44
2023-03-27T01:08:01.937Z,84.40
2023-03-27T01:10:47.281Z,84.54
2023-03-27T01:13:46.387Z,85.09
2023-03-27T01:16:33.206Z,85.06
2023-03-27T01:19:26.925Z,84.86
2023-03-27T01:22:09.445Z,85.02
2023-03-27T01:24:47.538Z,84.99
2023-03-27T01:27:22.720Z,84.91
2023-03-27T01:30:05.348Z,85.24
2023-03-27T01:32:53.362Z,85.35
2023-03-27T01:35:41.821Z,85.26
2023-03-27T01:38:42.496Z,85.89
2023-03-27T01:41:16.486Z,86.00
2023-03-27T01:43:43.333Z,85.77
2023-03-27T01:46:27.176Z,85.51
2023-03-27T01:49:09.235Z,85.43
2023-03-27T01:51:39.754Z,85.19
2023-03-27T01:54:23.600Z,85.03
2023-03-27T01:57:26.087Z,85.02
2023-03-27T02:00:18.174Z,85.06
2023-03-27T02:02:55.774Z,85.08
2023-03-27T02:05:38.825Z,85.17
2023-03-27T02:08:14.556Z,85.08
2023-03-27T02:10:49.342Z,84.67
2023-03-27T02:13:28.314Z,84.62
2023-03-27T02:16:01.389Z,84.56
2023-03-27T02:18:47.611Z,84.61
2023-03-27T02:21:15.595Z,84.67
2023-03-27T02:23:45.285Z,84.78
2023-03-27T02:26:14.225Z,84.54
2023-03-27T02:28:57.905Z,84.13
2023-03-27T02:31:46.776Z,84.31
2023-03-27T02:34:31.891Z,84.89
2023-03-27T02:37:07.115Z,84.89
2023-03-27T02:39:37.216Z,84.58
2023-03-27T02:42:28.999Z,84.50
2023-03-27T02:45:31.825Z,84.12
2023-03-27T02:49:01.267Z,83.38
2023-03-27T02:51:41.575Z,83.54
2023-03-27T02:54:24.954Z,84.00
2023-03-27T02:57:31.015Z,84.10
2023-03-27T03:00:00.869Z,84.05
2023-03-27T03:02:32.947Z,83.82
2023-03-27T03:05:13.332Z,83.52
2023-03-27T03:07:44.887Z,83.15
2023-03-27T03:10:11.968Z,82.77
2023-03-27T03:12:39.235Z,82.16
2023-03-27T03:15:08.002Z,83.15
2023-03-27T03:17:36.088Z,83.73
2023-03-27T03:20:05.268Z,83.95
2023-03-27T03:23:01.562Z,84.23
2023-03-27T03:25:33.763Z,84.40
2023-03-27T03:28:09.397Z,84.29
2023-03-27T03:30:41.350Z,84.39
2023-03-27T03:33:09.651Z,84.42
2023-03-27T03:35:36.424Z,84.46
2023-03-27T03:38:06.341Z,84.40
2023-03-27T03:40:55.252Z,84.24
2023-03-27T03:43:28.116Z,84.53
2023-03-27T03:45:55.617Z,84.63
2023-03-27T03:48:25.597Z,84.53
2023-03-27T03:51:00.526Z,84.89
2023-03-27T03:53:29.472Z,84.37
2023-03-27T03:55:58.117Z,83.45
2023-03-27T03:58:41.996Z,83.24
2023-03-27T04:01:13.241Z,82.78
2023-03-27T04:03:43.654Z,82.94
2023-03-27T04:09:13.943Z,82.42
2023-03-27T04:11:42.844Z,81.80
2023-03-27T04:14:11.825Z,81.77
2023-03-27T04:16:41.005Z,81.65
2023-03-27T04:19:07.665Z,81.81
2023-03-27T04:21:37.513Z,81.71
2023-03-27T04:24:07.261Z,81.43
2023-03-27T04:26:39.161Z,81.44
2023-03-27T04:29:10.422Z,81.34
2023-03-27T04:31:39.261Z,80.96
2023-03-27T04:34:08.443Z,80.77
2023-03-27T04:36:36.871Z,80.52
2023-03-27T04:39:04.013Z,80.47
2023-03-27T04:41:30.619Z,80.42
2023-03-27T04:43:57.342Z,80.47
2023-03-27T04:46:26.565Z,80.43
2023-03-27T04:48:53.482Z,80.08
2023-03-27T04:51:20.251Z,79.84
2023-03-27T04:53:59.912Z,79.71
2023-03-27T04:56:26.541Z,79.24
2023-03-27T04:58:53.186Z,79.24
2023-03-27T05:01:25.839Z,79.27
2023-03-27T05:03:53.707Z,79.37
2023-03-27T05:06:20.889Z,79.60
2023-03-27T05:08:50.700Z,79.33
2023-03-27T05:11:19.573Z,79.00
2023-03-27T05:13:49.358Z,79.20
2023-03-27T05:16:17.624Z,79.05
2023-03-27T05:18:48.005Z,78.75
2023-03-27T05:21:17.740Z,78.72
2023-03-27T05:23:46.991Z,78.55
2023-03-27T05:26:13.590Z,78.09
2023-03-27T05:28:40.195Z,77.77
2023-03-27T05:31:06.975Z,77.70
2023-03-27T05:33:33.714Z,77.56
2023-03-27T05:36:08.349Z,77.79
2023-03-27T05:38:39.599Z,77.66
2023-03-27T05:41:07.712Z,77.67
2023-03-27T05:43:36.054Z,77.48
2023-03-27T05:46:03.547Z,77.19
2023-03-27T05:48:30.989Z,77.35
2023-03-27T05:50:57.838Z,77.50
2023-03-27T05:53:28.837Z,77.33
2023-03-27T05:56:03.466Z,77.55
2023-03-27T05:58:33.275Z,77.38
2023-03-27T06:01:03.412Z,77.39
2023-03-27T06:03:30.662Z,77.23
2023-03-27T06:06:00.371Z,76.63
2023-03-27T06:08:30.056Z,76.62
2023-03-27T06:10:57.668Z,77.00
2023-03-27T06:13:24.533Z,77.04
2023-03-27T06:15:57.706Z,76.93
2023-03-27T06:18:27.525Z,76.66
2023-03-27T06:21:00.457Z,76.98
2023-03-27T06:23:33.248Z,76.78
2023-03-27T06:26:00.151Z,76.69
2023-03-27T06:28:27.012Z,76.06
2023-03-27T06:30:53.639Z,74.70
2023-03-27T06:33:20.960Z,74.75
2023-03-27T06:35:53.130Z,74.38
2023-03-27T06:38:21.141Z,74.50
2023-03-27T06:40:47.883Z,74.42
2023-03-27T06:43:25.460Z,74.39
2023-03-27T06:46:00.017Z,74.50
2023-03-27T06:48:29.239Z,74.71
2023-03-27T06:50:59.656Z,74.37
2023-03-27T06:53:37.304Z,74.25
2023-03-27T06:56:05.100Z,74.29
2023-03-27T06:58:32.022Z,73.98
2023-03-27T07:01:01.337Z,73.61
2023-03-27T07:03:33.395Z,73.42
2023-03-27T07:06:08.608Z,73.36
2023-03-27T07:08:40.698Z,73.38
2023-03-27T07:11:12.178Z,73.04
2023-03-27T07:13:41.259Z,72.40
2023-03-27T07:16:09.673Z,72.26
2023-03-27T07:18:36.709Z,72.59
2023-03-27T07:21:03.564Z,72.62
2023-03-27T07:23:30.232Z,72.69
2023-03-27T07:25:57.506Z,72.68
2023-03-27T07:28:24.228Z,73.10
2023-03-27T07:30:53.885Z,73.20
2023-03-27T07:33:27.801Z,74.29
2023-03-27T07:35:54.700Z,75.71
2023-03-27T07:38:21.415Z,76.53
2023-03-27T07:40:49.862Z,77.44
2023-03-27T07:43:19.230Z,76.55
2023-03-27T07:45:55.938Z,75.88
2023-03-27T07:48:23.134Z,75.45
2023-03-27T07:50:49.634Z,75.62
2023-03-27T07:53:34.042Z,75.31
2023-03-27T07:56:10.961Z,75.11
2023-03-27T07:58:37.643Z,74.00
2023-03-27T08:01:04.817Z,72.38
2023-03-27T08:03:31.812Z,71.94
2023-03-27T08:06:00.308Z,72.19
2023-03-27T08:08:33.866Z,71.85
2023-03-27T08:11:01.843Z,71.49
2023-03-27T08:13:29.169Z,70.75
2023-03-27T08:16:18.488Z,69.26
2023-03-27T08:18:49.436Z,68.40
2023-03-27T08:21:18.614Z,67.80
2023-03-27T08:23:50.756Z,66.92
2023-03-27T08:26:35.786Z,66.08
2023-03-27T08:29:06.283Z,65.47
2023-03-27T08:31:35.793Z,64.47
2023-03-27T08:34:05.339Z,63.92
2023-03-27T08:36:32.254Z,62.64
2023-03-27T08:38:59.130Z,61.54
2023-03-27T08:41:31.036Z,61.40
2023-03-27T08:44:04.052Z,60.43
2023-03-27T08:46:37.655Z,60.40
2023-03-27T08:49:07.198Z,60.03
2023-03-27T08:52:08.905Z,60.11
2023-03-27T08:54:41.181Z,60.35
2023-03-27T08:57:20.065Z,60.06
2023-03-27T08:59:47.992Z,59.67
2023-03-27T09:02:33.537Z,58.70
2023-03-27T09:05:20.160Z,57.66
2023-03-27T09:08:12.787Z,56.82
2023-03-27T09:10:47.988Z,56.77
2023-03-27T09:13:46.865Z,57.39
2023-03-27T09:16:38.138Z,57.65
2023-03-27T09:19:19.706Z,57.32
2023-03-27T09:21:58.147Z,57.55
2023-03-27T09:24:32.945Z,57.55
2023-03-27T09:27:19.249Z,57.44
2023-03-27T09:30:06.422Z,56.45
2023-03-27T09:32:39.263Z,56.90
2023-03-27T09:35:06.350Z,56.99
2023-03-27T09:37:36.866Z,56.82
2023-03-27T09:40:07.805Z,56.53
2023-03-27T09:42:43.003Z,56.58
2023-03-27T09:45:13.765Z,56.06
2023-03-27T09:47:49.471Z,55.16
2023-03-27T09:50:38.904Z,53.40
2023-03-27T09:53:12.873Z,53.14
2023-03-27T09:55:57.196Z,53.95
2023-03-27T09:58:29.343Z,52.99
2023-03-27T10:01:13.955Z,52.81
2023-03-27T10:03:54.058Z,52.17
2023-03-27T10:06:26.341Z,51.98
2023-03-27T10:08:58.792Z,51.10
2023-03-27T10:11:27.821Z,50.67
2023-03-27T10:13:54.823Z,50.22
2023-03-27T10:16:22.742Z,49.53
2023-03-27T10:18:53.665Z,49.79
2023-03-27T10:21:23.220Z,49.83
2023-03-27T10:23:49.942Z,50.05
2023-03-27T10:26:18.043Z,50.74
2023-03-27T10:28:49.128Z,51.44
2023-03-27T10:31:30.066Z,51.70
2023-03-27T10:34:04.681Z,51.75
2023-03-27T10:36:36.643Z,51.28
2023-03-27T10:39:09.943Z,51.29
2023-03-27T10:41:36.901Z,51.51
2023-03-27T10:44:13.645Z,51.51
2023-03-27T10:46:41.093Z,51.16
2023-03-27T10:49:10.481Z,50.79
2023-03-27T10:51:46.991Z,50.44
2023-03-27T10:54:18.136Z,50.19
2023-03-27T10:56:47.874Z,50.04
2023-03-27T11:02:01.874Z,48.54
2023-03-27T11:04:35.034Z,47.87
2023-03-27T11:07:03.505Z,46.71
2023-03-27T11:09:34.619Z,45.90
2023-03-27T11:12:02.110Z,45.78
2023-03-27T11:14:36.701Z,44.95
2023-03-27T11:17:07.762Z,43.60
2023-03-27T11:19:40.528Z,42.49
2023-03-27T11:22:17.232Z,42.07
2023-03-27T11:25:17.068Z,41.32
2023-03-27T11:27:48.438Z,41.33
2023-03-27T11:30:20.513Z,40.50
2023-03-27T11:33:10.256Z,40.10
2023-03-27T11:35:39.243Z,39.22
2023-03-27T11:38:31.755Z,38.92
2023-03-27T11:41:04.234Z,39.18
2023-03-27T11:43:38.677Z,38.93
2023-03-27T11:46:24.233Z,38.83
2023-03-27T11:49:06.033Z,39.18
2023-03-27T11:51:44.661Z,39.29
2023-03-27T11:54:32.320Z,39.88
2023-03-27T11:57:01.325Z,38.42
2023-03-27T11:59:28.448Z,37.38
2023-03-27T12:02:03.362Z,36.61
2023-03-27T12:04:36.694Z,37.18
2023-03-27T12:07:08.211Z,37.35
2023-03-27T12:09:57.143Z,37.67
2023-03-27T12:12:23.734Z,37.53
2023-03-27T12:14:59.477Z,38.25
2023-03-27T12:17:26.092Z,38.25
2023-03-27T12:19:58.832Z,37.88
2023-03-27T12:22:33.358Z,37.55
2023-03-27T12:25:00.277Z,37.49
2023-03-27T12:27:48.535Z,37.44
2023-03-27T12:30:17.792Z,37.07
2023-03-27T12:32:47.487Z,36.63
2023-03-27T12:35:14.159Z,36.73
2023-03-27T12:37:58.985Z,36.50
2023-03-27T12:40:40.320Z,36.02
2023-03-27T12:43:26.786Z,35.84
2023-03-27T12:46:16.308Z,38.17
2023-03-27T12:49:01.507Z,39.83
2023-03-27T12:51:49.551Z,40.14
2023-03-27T12:54:27.415Z,41.12
2023-03-27T12:57:15.846Z,40.99
2023-03-27T12:59:48.810Z,40.50
2023-03-27T13:02:16.390Z,40.78
2023-03-27T13:04:54.900Z,41.04
2023-03-27T13:07:39.405Z,41.73
2023-03-27T13:10:24.551Z,41.91
2023-03-27T13:13:17.345Z,42.21
2023-03-27T13:15:50.096Z,42.11
2023-03-27T13:18:22.709Z,42.12
2023-03-27T13:21:08.729Z,42.33
2023-03-27T13:23:45.855Z,42.69
2023-03-27T13:26:24.366Z,42.76
2023-03-27T13:28:55.438Z,42.71
2023-03-27T13:34:25.865Z,42.65
2023-03-27T13:37:06.454Z,42.68
2023-03-27T13:39:52.570Z,42.20
2023-03-27T13:42:28.327Z,42.01
2023-03-27T13:45:13.828Z,42.47
2023-03-27T13:47:40.409Z,42.16
2023-03-27T13:50:45.150Z,42.48
2023-03-27T13:53:37.104Z,42.69
2023-03-27T13:56:17.131Z,43.18
2023-03-27T13:58:52.751Z,43.28
2023-03-27T14:01:46.846Z,43.18
2023-03-27T14:04:24.897Z,43.60
2023-03-27T14:07:10.112Z,43.92
2023-03-27T14:09:39.234Z,43.47
2023-03-27T14:15:32.416Z,42.58
2023-03-27T14:18:14.301Z,42.46
2023-03-27T14:20:48.566Z,42.85
2023-03-27T14:23:45.218Z,42.21
2023-03-27T14:29:14.628Z,43.54
2023-03-27T14:31:44.422Z,44.83
2023-03-27T14:34:37.611Z,45.65
2023-03-27T14:37:32.606Z,46.31
2023-03-27T14:43:01.983Z,46.42
2023-03-27T14:45:40.991Z,46.35
2023-03-27T14:48:21.957Z,45.40
2023-03-27T14:50:50.414Z,45.45
2023-03-27T14:53:18.607Z,45.60
2023-03-27T14:55:48.676Z,46.02
2023-03-27T14:58:25.510Z,46.26
2023-03-27T15:01:11.442Z,46.59
2023-03-27T15:03:49.633Z,46.96
2023-03-27T15:06:35.595Z,47.47
2023-03-27T15:09:06.048Z,47.81
2023-03-27T15:11:53.255Z,49.47
2023-03-27T15:14:43.894Z,50.91
2023-03-27T15:17:21.341Z,51.42
2023-03-27T15:20:03.842Z,52.18
2023-03-27T15:22:53.168Z,53.15
2023-03-27T15:25:40.172Z,53.69
2023-03-27T15:28:10.883Z,53.27
2023-03-27T15:30:45.149Z,53.56
2023-03-27T15:33:21.429Z,53.82
2023-03-27T15:35:53.469Z,53.90
2023-03-27T15:41:18.714Z,54.28
2023-03-27T15:43:45.582Z,54.22
2023-03-27T15:46:26.702Z,54.60
2023-03-27T15:48:56.564Z,54.64
2023-03-27T15:51:23.154Z,54.48
2023-03-27T15:54:16.386Z,54.42
2023-03-27T15:57:10.877Z,54.65
2023-03-27T15:59:52.548Z,54.70
2023-03-27T16:02:27.028Z,54.93
2023-03-27T16:04:58.237Z,54.74
2023-03-27T16:07:51.577Z,54.91
2023-03-27T16:10:30.827Z,54.77
2023-03-27T16:13:02.737Z,54.94
2023-03-27T16:15:41.543Z,55.07
2023-03-27T16:18:32.085Z,55.42
2023-03-27T16:21:09.956Z,55.56
2023-03-27T16:23:37.590Z,55.72
2023-03-27T16:26:18.728Z,56.31
2023-03-27T16:28:45.414Z,56.77
2023-03-27T16:31:15.906Z,57.19
2023-03-27T16:33:43.166Z,57.53
2023-03-27T16:36:18.937Z,57.84
2023-03-27T16:38:55.387Z,58.18
2023-03-27T16:41:23.543Z,58.27
2023-03-27T16:43:50.494Z,58.52
2023-03-27T16:46:31.437Z,58.78
2023-03-27T16:48:59.129Z,59.07
2023-03-27T16:51:27.739Z,59.70
2023-03-27T16:53:54.886Z,60.01
2023-03-27T16:56:37.750Z,60.20
2023-03-27T16:59:10.602Z,60.53
2023-03-27T17:01:41.458Z,60.98
2023-03-27T17:04:11.123Z,61.04
2023-03-27T17:06:45.980Z,61.59
2023-03-27T17:09:12.925Z,61.70
2023-03-27T17:11:46.204Z,61.41
2023-03-27T17:14:12.861Z,61.53
2023-03-27T17:19:22.717Z,61.50
2023-03-27T17:21:51.866Z,61.44
2023-03-27T17:24:29.651Z,61.04
2023-03-27T17:27:03.574Z,61.10
2023-03-27T17:29:30.713Z,61.10
2023-03-27T17:32:03.951Z,61.11
2023-03-27T17:34:30.834Z,61.22
2023-03-27T17:37:00.126Z,60.86
2023-03-27T17:39:27.014Z,60.50
2023-03-27T17:42:08.098Z,59.14
2023-03-27T17:44:35.420Z,57.62
2023-03-27T17:47:22.180Z,57.29
2023-03-27T17:49:49.012Z,57.59
2023-03-27T17:52:41.817Z,57.93
2023-03-27T17:55:11.592Z,58.48
2023-03-27T17:58:30.177Z,58.69
2023-03-27T18:01:00.327Z,59.29
2023-03-27T18:03:30.887Z,60.08
2023-03-27T18:06:07.835Z,60.36
2023-03-27T18:08:39.861Z,60.52
2023-03-27T18:11:17.606Z,60.82
2023-03-27T18:13:46.368Z,61.50
2023-03-27T18:16:17.735Z,61.55
2023-03-27T18:18:48.498Z,62.25
2023-03-27T18:21:17.960Z,62.29
2023-03-27T18:23:47.115Z,62.82
2023-03-27T18:26:23.095Z,63.24
2023-03-27T18:28:58.583Z,63.09
2023-03-27T18:31:28.452Z,63.43
2023-03-27T18:34:03.030Z,63.37
2023-03-27T18:36:41.762Z,63.63
2023-03-27T18:39:14.669Z,63.85
2023-03-27T18:44:56.232Z,63.96
2023-03-27T18:47:32.425Z,64.09
2023-03-27T18:49:59.236Z,64.09
2023-03-27T18:52:26.542Z,64.52
2023-03-27T18:54:53.160Z,64.37
2023-03-27T18:57:29.244Z,64.67
2023-03-27T19:03:18.319Z,65.20
2023-03-27T19:05:47.749Z,65.64
2023-03-27T19:08:21.605Z,65.51
2023-03-27T19:10:48.406Z,65.89
2023-03-27T19:13:16.077Z,65.93
2023-03-27T19:15:43.172Z,66.15
2023-03-27T19:18:12.881Z,66.02
2023-03-27T19:20:39.886Z,66.13
2023-03-27T19:23:10.056Z,65.69
2023-03-27T19:25:46.666Z,65.92
2023-03-27T19:28:24.212Z,66.34
2023-03-27T19:30:54.272Z,66.66
2023-03-27T19:33:23.526Z,66.94
2023-03-27T19:35:55.191Z,67.04
2023-03-27T19:38:21.873Z,67.19
2023-03-27T19:41:23.613Z,67.40
2023-03-27T19:43:50.469Z,67.50
2023-03-27T19:46:18.011Z,67.67
2023-03-27T19:48:49.720Z,68.08
2023-03-27T19:51:16.374Z,68.19
2023-03-27T19:53:45.707Z,68.51
2023-03-27T19:56:14.393Z,68.54
2023-03-27T19:58:41.006Z,68.69
2023-03-27T20:01:10.735Z,68.86
2023-03-27T20:03:42.233Z,69.09
2023-03-27T20:06:18.896Z,68.99
2023-03-27T20:08:49.273Z,68.98
2023-03-27T20:11:17.485Z,69.49
2023-03-27T20:16:53.375Z,68.79
2023-03-27T20:19:21.962Z,68.92
2023-03-27T20:21:49.061Z,69.36
2023-03-27T20:24:17.408Z,69.01
2023-03-27T20:26:48.237Z,68.71
2023-03-27T20:29:20.848Z,69.10
2023-03-27T20:31:50.341Z,69.24
2023-03-27T20:34:20.021Z,68.87
2023-03-27T20:36:53.592Z,69.26
2023-03-27T20:39:20.993Z,68.92
2023-03-27T20:41:48.008Z,69.49
2023-03-27T20:44:17.750Z,69.66
2023-03-27T20:46:53.421Z,69.62
2023-03-27T20:51:55.959Z,69.11
2023-03-27T20:54:22.722Z,69.02
2023-03-27T20:56:49.405Z,69.21
2023-03-27T20:59:18.868Z,68.96
2023-03-27T21:01:45.580Z,68.94
2023-03-27T21:04:21.554Z,69.01
2023-03-27T21:06:48.331Z,69.30
2023-03-27T21:09:17.907Z,68.79
2023-03-27T21:11:47.460Z,69.02
2023-03-27T21:14:14.222Z,68.90
2023-03-27T21:16:41.018Z,68.92
2023-03-27T21:19:12.076Z,68.85
2023-03-27T21:21:42.114Z,68.93
2023-03-27T21:24:13.454Z,68.98
2023-03-27T21:26:45.174Z,68.95
2023-03-27T21:29:17.896Z,69.13
2023-03-27T21:31:44.614Z,69.53
2023-03-27T21:34:11.391Z,69.03
2023-03-27T21:36:40.599Z,68.84
2023-03-27T21:39:08.672Z,69.12
2023-03-27T21:41:41.536Z,69.19
2023-03-27T21:44:10.357Z,69.34
2023-03-27T21:46:37.112Z,69.70
2023-03-27T21:49:06.391Z,69.94
2023-03-27T21:51:33.044Z,70.19
2023-03-27T21:53:59.741Z,69.94
2023-03-27T21:56:26.439Z,70.02
2023-03-27T21:58:53.056Z,70.33
2023-03-27T22:01:19.776Z,70.25
2023-03-27T22:03:49.470Z,70.31
2023-03-27T22:06:18.022Z,70.38
2023-03-27T22:08:45.039Z,70.65
2023-03-27T22:11:12.474Z,70.72
2023-03-27T22:13:40.045Z,70.88
2023-03-27T22:16:12.069Z,70.79
2023-03-27T22:18:44.605Z,71.23
2023-03-27T22:21:16.700Z,71.24
2023-03-27T22:23:43.599Z,71.25
2023-03-27T22:26:10.392Z,71.55
2023-03-27T22:28:39.877Z,72.02
2023-03-27T22:31:07.505Z,72.17
2023-03-27T22:33:34.435Z,72.35
2023-03-27T22:36:03.513Z,72.56
2023-03-27T22:38:31.557Z,72.43
2023-03-27T22:41:00.310Z,72.42
2023-03-27T22:43:32.405Z,72.51
2023-03-27T22:46:07.419Z,72.91
2023-03-27T22:48:34.943Z,72.83
2023-03-27T22:51:01.823Z,72.97
2023-03-27T22:53:32.014Z,72.78
2023-03-27T22:56:03.014Z,73.12
2023-03-27T22:58:30.597Z,73.43
2023-03-27T23:00:57.144Z,73.87
2023-03-27T23:03:24.814Z,73.38
2023-03-27T23:05:57.971Z,73.70
2023-03-27T23:08:27.201Z,74.46
2023-03-27T23:10:58.255Z,72.91
2023-03-27T23:13:25.732Z,73.79
2023-03-27T23:15:57.217Z,73.70
2023-03-27T23:18:27.173Z,73.58
2023-03-27T23:21:06.238Z,73.90
2023-03-27T23:23:34.482Z,73.24
2023-03-27T23:26:01.776Z,73.30
2023-03-27T23:28:31.741Z,73.22
2023-03-27T23:31:12.443Z,72.90
2023-03-27T23:33:44.502Z,73.11
2023-03-27T23:36:14.906Z,73.90
2023-03-27T23:38:42.178Z,73.70
2023-03-27T23:41:14.031Z,73.93
2023-03-27T23:43:40.779Z,73.28
2023-03-27T23:46:10.948Z,73.53
2023-03-27T23:48:41.972Z,73.94
2023-03-27T23:51:16.558Z,74.30
2023-03-27T23:53:47.145Z,75.12
2023-03-27T23:56:13.963Z,75.33
2023-03-27T23:58:40.749Z,75.41
